Dalton-in-Furness, United Kingdom
Current Conditions -  °F | °C
As of 8:50 AM on Saturday 29 Nov 2014 (Local Time) from EGOW Reporting Station
Light Rain Light Rain  
Wind Chill: 50°   Ceiling: Unl
Heat Index: 50°   Visibility: 4mi
Dew Point: 46°   Wind: 8mph
Humidity: 87%   Direction: 110°ESE
Pressure: 29.83"   Gusts: NA
Location:  54.15°N, 3.17°W
Report Text: EGOW 290850Z 11007KT 6000 -RA FEW018 SCT060 10/08 Q1010 WHT
Loading
Personal Weather Stations






























Interactive Weather Map New forecast layout! Learn more

10-Day Weather Forecast

Advertisements
Track Severe Weather on mobile